UPSVAC Airport Information Service

Atlanta Hartsfield-Jackson International Airport

ICAO: KATL Country: United States
Latitude: 33.6367 Longitude: -84.428
Latest Arrival : UPS1128 (KSDF-KATL) Latest Departure : UPS1273 (KATL-KSDF)


WX CaptureLIVE
Data provided by noaa.gov | Fetched at 13:56:30

METAR : KATL 141252Z 26003KT 10SM FEW200 FEW250 18/11 A3008 RMK AO2 SLP180 T01830106

TAF : KATL 141139Z 1412/1518 25005KT P6SM FEW100 SCT250 FM141800 23011KT P6SM SCT050 BKN100 FM142200 24011KT P6SM VCSH SCT025 BKN050 PROB30 1422/1502 6SM -SHRA BKN025 FM150200 25008KT P6SM VCSH OVC025 FM150600 26008KT P6SM VCSH BKN008 OVC012 FM151000 31008KT P6SM BKN007 FM151500 33010KT P6SM BKN025


Runway Data for KATL
Data provided by openaviationdata.com

Runway ID Mag Var Hdg Length Elevation Surface ILS Freq ILS Id ILS Slope
08L -3 93° 8990 ft 1026 ft Concrete 109.3 IHFW 3
08R -3 93° 9989 ft 1026 ft Concrete 109.9 IATL 3
09L -3 93° 11876 ft 1026 ft Concrete 110.5 IHZK 3
09R -3 93° 8990 ft 1026 ft Concrete 108.9 IFUN 3
26L -3 273° 9989 ft 1026 ft Concrete 108.7 IBRU 3
26R -3 273° 8990 ft 1026 ft Concrete 110.1 IGXZ 3
27L -3 273° 8990 ft 1026 ft Concrete 108.5 IFSQ 3
27R -3 273° 11876 ft 1026 ft Concrete 111.3 IAFA 3

Atlanta Hartsfield-Jackson International Airport, United States
Use only for reference purposes



Not for navigational purposes.